Time;durP1;ratioP1;P1;durP2;ratioP2;P2;SDS_P1;SDS_P2;PMS_P1;PMS_P2;Temp;Humidity;BMP_temperature;BMP_pressure;BME280_temperature;BME280_humidity;BME280_pressure;Samples;Min_cycle;Max_cycle;Signal;HPM_P1;HPM_P2
2023/07/15 00:01:19;;;;;;;9.32;7.22;;;;;;;16.06;100.00;93714.28;5106697;28;20044;-61
2023/07/15 00:03:47;;;;;;;10.27;6.80;;;;;;;16.06;100.00;93705.22;5090488;28;20048;-60
2023/07/15 00:06:15;;;;;;;8.77;6.72;;;;;;;16.23;100.00;93711.25;5089432;28;20836;-60
2023/07/15 00:08:43;;;;;;;9.13;6.50;;;;;;;16.31;100.00;93710.50;5105668;28;20104;-60
2023/07/15 00:11:22;;;;;;;8.43;6.30;;;;;;;16.27;100.00;93712.63;5109991;28;20047;-61
2023/07/15 00:13:49;;;;;;;11.50;8.13;;;;;;;16.08;100.00;93705.53;5110509;28;20055;-61
2023/07/15 00:16:15;;;;;;;8.82;6.82;;;;;;;15.92;100.00;93720.38;5089341;28;20204;-60
2023/07/15 00:18:42;;;;;;;9.25;6.72;;;;;;;15.82;100.00;93719.56;5090098;28;20036;-63
2023/07/15 00:21:22;;;;;;;10.00;6.80;;;;;;;15.94;100.00;93713.16;5087634;28;20052;-61
2023/07/15 00:23:55;;;;;;;9.38;6.45;;;;;;;16.07;100.00;93709.50;5089815;28;20522;-61
2023/07/15 00:26:25;;;;;;;9.35;6.85;;;;;;;16.14;100.00;93700.94;5090343;28;20058;-61
2023/07/15 00:28:52;;;;;;;8.85;6.38;;;;;;;16.16;100.00;93707.53;5089573;28;20456;-60
2023/07/15 00:31:19;;;;;;;9.35;6.45;;;;;;;16.21;100.00;93703.41;5080343;28;20047;-61
2023/07/15 00:33:48;;;;;;;8.80;6.67;;;;;;;16.09;100.00;93699.50;5069789;28;20070;-60
2023/07/15 00:36:16;;;;;;;9.80;7.05;;;;;;;15.91;100.00;93700.22;5095460;28;20601;-61
2023/07/15 00:38:43;;;;;;;9.38;6.90;;;;;;;15.69;100.00;93703.00;5109693;28;20129;-61
2023/07/15 00:41:23;;;;;;;8.80;6.70;;;;;;;15.54;100.00;93704.78;5109324;28;20039;-61
2023/07/15 00:43:58;;;;;;;10.32;7.00;;;;;;;15.67;100.00;93704.69;5109614;28;20048;-60
2023/07/15 00:47:03;;;;;;;7.63;6.07;;;;;;;15.83;100.00;93701.72;5109736;28;20043;-62
2023/07/15 00:49:32;;;;;;;8.98;6.60;;;;;;;15.83;100.00;93701.72;5109006;28;21607;-60
2023/07/15 00:52:08;;;;;;;9.50;7.15;;;;;;;15.48;100.00;93704.59;5109242;28;20044;-61
2023/07/15 00:54:37;;;;;;;9.82;7.15;;;;;;;15.49;100.00;93703.41;5109840;28;20902;-60
2023/07/15 00:57:07;;;;;;;10.25;7.13;;;;;;;15.65;100.00;93699.63;5109522;27;20040;-59
2023/07/15 00:59:36;;;;;;;10.47;6.80;;;;;;;15.73;100.00;93705.69;5109848;28;20032;-59
2023/07/15 01:02:03;;;;;;;10.13;6.90;;;;;;;15.78;100.00;93699.56;5109366;28;20055;-59
2023/07/15 01:04:29;;;;;;;8.73;6.82;;;;;;;15.81;100.00;93704.16;5109707;28;20050;-60
2023/07/15 01:06:56;;;;;;;38.47;26.25;;;;;;;15.83;100.00;93698.19;5108456;28;20060;-59
2023/07/15 01:09:24;;;;;;;11.80;7.32;;;;;;;15.48;100.00;93706.59;5109472;28;20142;-58
2023/07/15 01:11:51;;;;;;;10.57;7.40;;;;;;;15.47;100.00;93705.81;5081979;28;20050;-58
2023/07/15 01:14:18;;;;;;;10.30;7.10;;;;;;;15.48;100.00;93701.84;5071491;28;20039;-60
2023/07/15 01:16:47;;;;;;;10.93;7.20;;;;;;;15.56;100.00;93700.34;5089156;28;20350;-58
2023/07/15 01:19:18;;;;;;;9.82;6.85;;;;;;;15.64;100.00;93700.09;5095056;28;20516;-61
2023/07/15 01:21:49;;;;;;;9.02;6.72;;;;;;;15.68;100.00;93706.25;5092831;28;20100;-58
2023/07/15 01:24:22;;;;;;;9.23;6.40;;;;;;;15.57;100.00;93692.81;5107476;28;20399;-59
2023/07/15 01:26:57;;;;;;;9.70;7.10;;;;;;;15.54;100.00;93702.78;5109171;28;20047;-59
2023/07/15 01:29:24;;;;;;;9.00;6.35;;;;;;;15.51;100.00;93698.19;5108160;28;20723;-60
2023/07/15 01:31:50;;;;;;;8.50;6.60;;;;;;;15.50;100.00;93693.09;5081334;28;20040;-59
2023/07/15 01:34:19;;;;;;;8.75;6.53;;;;;;;15.42;100.00;93695.34;5075726;28;20043;-58
2023/07/15 01:36:46;;;;;;;10.33;6.80;;;;;;;15.49;100.00;93692.34;5096239;28;20092;-58
2023/07/15 01:39:13;;;;;;;9.10;6.32;;;;;;;15.52;100.00;93688.66;5108166;28;20065;-58
2023/07/15 01:41:40;;;;;;;10.98;6.50;;;;;;;15.55;100.00;93693.28;5108753;28;20442;-59
2023/07/15 01:44:06;;;;;;;9.10;6.78;;;;;;;15.33;100.00;93696.09;5089715;28;20058;-60
2023/07/15 01:46:39;;;;;;;10.35;7.15;;;;;;;15.25;100.00;93694.00;5108655;28;20043;-60
2023/07/15 01:49:07;;;;;;;9.83;7.53;;;;;;;15.27;100.00;93689.59;5108097;28;20416;-60
2023/07/15 01:51:35;;;;;;;9.25;7.20;;;;;;;15.37;100.00;93690.41;5108566;28;20051;-58
2023/07/15 01:54:02;;;;;;;10.10;7.20;;;;;;;15.39;100.00;93687.94;5108251;28;20039;-59
2023/07/15 01:56:29;;;;;;;10.40;7.05;;;;;;;15.25;100.00;93688.47;5108676;28;20035;-60
2023/07/15 01:58:55;;;;;;;11.05;7.63;;;;;;;15.02;100.00;93687.72;5108173;28;20040;-59
2023/07/15 02:01:22;;;;;;;10.63;7.60;;;;;;;14.95;100.00;93687.97;5108759;28;20042;-58
2023/07/15 02:03:50;;;;;;;12.65;7.65;;;;;;;14.93;100.00;93688.44;5107806;28;20518;-58
2023/07/15 02:06:17;;;;;;;11.50;7.88;;;;;;;15.02;100.00;93686.97;5108549;28;20035;-58
2023/07/15 02:08:44;;;;;;;10.80;7.18;;;;;;;15.01;100.00;93690.94;5090192;28;20474;-60
2023/07/15 02:11:11;;;;;;;11.43;6.70;;;;;;;15.10;100.00;93679.94;5108128;28;20040;-60
2023/07/15 02:13:38;;;;;;;9.37;6.60;;;;;;;15.15;100.00;93685.69;5108294;28;20038;-61
2023/07/15 02:16:05;;;;;;;10.23;6.80;;;;;;;15.17;100.00;93674.94;5107961;28;20040;-58
2023/07/15 02:18:31;;;;;;;10.18;6.50;;;;;;;15.17;100.00;93677.72;5090552;28;20046;-58
2023/07/15 02:20:58;;;;;;;9.23;7.10;;;;;;;15.18;100.00;93679.22;5098233;28;20040;-59
2023/07/15 02:23:25;;;;;;;10.70;6.90;;;;;;;15.22;100.00;93681.13;5088119;28;20048;-59
2023/07/15 02:25:51;;;;;;;9.80;7.03;;;;;;;15.25;100.00;93674.66;5086479;28;20048;-60
2023/07/15 02:28:20;;;;;;;9.65;6.68;;;;;;;15.23;100.00;93666.84;5088495;28;20043;-63
2023/07/15 02:30:47;;;;;;;9.18;6.70;;;;;;;15.24;100.00;93668.38;5087037;28;20040;-61
2023/07/15 02:33:14;;;;;;;10.75;7.40;;;;;;;15.17;100.00;93672.19;5087613;28;20105;-60
2023/07/15 02:35:40;;;;;;;10.27;7.47;;;;;;;15.11;100.00;93667.66;5080930;28;20050;-60
2023/07/15 02:38:07;;;;;;;9.53;7.17;;;;;;;15.05;100.00;93669.47;5107432;28;20210;-63
2023/07/15 02:40:34;;;;;;;10.45;7.00;;;;;;;15.00;100.00;93665.31;5090229;28;20062;-60
2023/07/15 02:43:01;;;;;;;9.88;7.25;;;;;;;15.03;100.00;93664.41;5089745;28;20441;-61
2023/07/15 02:45:27;;;;;;;10.60;7.30;;;;;;;15.03;100.00;93669.94;5108264;28;20055;-60
2023/07/15 02:47:54;;;;;;;10.18;7.40;;;;;;;14.97;100.00;93666.97;5107618;28;20043;-60
2023/07/15 02:50:21;;;;;;;4.40;2.77;;;;;;;14.76;100.00;93668.50;5090319;28;20051;-60
2023/07/15 02:52:48;;;;;;;11.02;7.70;;;;;;;14.78;100.00;93668.81;5108342;28;20067;-61
2023/07/15 02:55:15;;;;;;;11.50;7.50;;;;;;;14.86;100.00;93671.34;5109789;28;20372;-61
2023/07/15 02:57:42;;;;;;;10.15;7.20;;;;;;;14.91;100.00;93668.00;5112264;28;20031;-60
2023/07/15 03:00:13;;;;;;;13.43;7.90;;;;;;;14.88;100.00;93666.13;5111525;28;20403;-61
2023/07/15 03:02:41;;;;;;;9.67;7.40;;;;;;;14.91;100.00;93673.50;5112234;28;20497;-62
2023/07/15 03:05:08;;;;;;;9.90;7.53;;;;;;;14.86;100.00;93671.34;5111280;28;20057;-60
2023/07/15 03:07:35;;;;;;;10.82;7.78;;;;;;;14.62;100.00;93674.53;5112091;28;20039;-61
2023/07/15 03:10:06;;;;;;;24.20;15.63;;;;;;;14.56;100.00;93679.06;5111263;28;20049;-60
2023/07/15 03:12:32;;;;;;;13.18;8.23;;;;;;;14.54;100.00;93684.25;5111608;28;20089;-61
2023/07/15 03:14:59;;;;;;;10.70;8.07;;;;;;;14.60;100.00;93676.97;5110976;28;20075;-61
2023/07/15 03:17:26;;;;;;;9.93;8.02;;;;;;;14.65;100.00;93673.66;5073286;28;20046;-60
2023/07/15 03:19:53;;;;;;;11.50;7.82;;;;;;;14.68;100.00;93681.03;5102640;28;20675;-61
2023/07/15 03:22:19;;;;;;;10.10;7.95;;;;;;;14.72;100.00;93670.63;5061287;28;20055;-61
2023/07/15 03:24:46;;;;;;;9.65;7.20;;;;;;;14.75;100.00;93663.44;5089921;28;20035;-60
2023/07/15 03:27:13;;;;;;;11.50;8.10;;;;;;;14.75;100.00;93663.44;5110668;28;20044;-62
2023/07/15 03:29:40;;;;;;;11.70;7.35;;;;;;;14.75;100.00;93666.22;5111335;28;20085;-60
2023/07/15 03:32:06;;;;;;;10.95;7.15;;;;;;;14.77;100.00;93661.78;5094430;28;20044;-60
2023/07/15 03:34:33;;;;;;;11.43;7.10;;;;;;;14.71;100.00;93668.31;5090799;28;20060;-62
2023/07/15 03:37:00;;;;;;;10.80;7.65;;;;;;;14.61;100.00;93674.97;5101961;28;20044;-61
2023/07/15 03:39:27;;;;;;;11.03;8.10;;;;;;;14.51;100.00;93668.59;5110902;28;20043;-61
2023/07/15 03:41:53;;;;;;;11.27;7.75;;;;;;;14.56;100.00;93676.31;5097258;28;20054;-60
2023/07/15 03:44:20;;;;;;;12.23;7.70;;;;;;;14.50;100.00;93673.31;5093118;28;20047;-60
2023/07/15 03:46:47;;;;;;;10.40;7.38;;;;;;;14.54;100.00;93673.97;5110907;28;20073;-61
2023/07/15 03:49:14;;;;;;;10.15;7.07;;;;;;;14.62;100.00;93657.97;5075650;28;20089;-62
2023/07/15 03:51:40;;;;;;;10.57;7.53;;;;;;;14.72;100.00;93667.09;5110956;28;20032;-61
2023/07/15 03:54:07;;;;;;;10.35;7.20;;;;;;;14.78;100.00;93662.53;5110249;28;20412;-59
2023/07/15 03:56:34;;;;;;;10.73;7.35;;;;;;;14.78;100.00;93657.78;5110716;28;20044;-60
2023/07/15 03:59:01;;;;;;;11.43;6.90;;;;;;;14.80;100.00;93662.84;5101643;28;20047;-62
2023/07/15 04:01:28;;;;;;;8.93;6.90;;;;;;;14.75;100.00;93663.44;5110840;28;20156;-62
2023/07/15 04:03:55;;;;;;;9.23;6.90;;;;;;;14.76;100.00;93662.97;5110279;28;20052;-60
2023/07/15 04:06:21;;;;;;;10.23;7.30;;;;;;;14.76;100.00;93656.69;5109965;28;20047;-63
2023/07/15 04:08:49;;;;;;;10.90;7.28;;;;;;;14.68;100.00;93655.41;5110019;28;20036;-61
2023/07/15 04:11:17;;;;;;;10.05;7.10;;;;;;;14.76;100.00;93662.97;5109897;28;21478;-60
2023/07/15 04:13:44;;;;;;;9.32;6.80;;;;;;;14.73;100.00;93661.13;5110407;28;20039;-60
2023/07/15 04:16:12;;;;;;;9.00;6.67;;;;;;;14.85;100.00;93658.72;5109987;28;20044;-60
2023/07/15 04:18:40;;;;;;;10.32;7.05;;;;;;;14.87;100.00;93656.28;5110413;28;21760;-60
2023/07/15 04:21:07;;;;;;;8.98;7.40;;;;;;;14.85;100.00;93653.22;5099070;28;20640;-61
2023/07/15 04:23:34;;;;;;;9.85;7.43;;;;;;;14.82;100.00;93646.59;5104654;28;20040;-60
2023/07/15 04:26:00;;;;;;;11.15;7.40;;;;;;;14.96;100.00;93648.06;5099887;28;20048;-61
2023/07/15 04:28:28;;;;;;;10.87;7.00;;;;;;;15.02;100.00;93642.75;5095178;28;20092;-60
2023/07/15 04:30:54;;;;;;;10.73;7.13;;;;;;;15.08;100.00;93646.47;5109544;28;20039;-60
2023/07/15 04:33:22;;;;;;;9.60;7.15;;;;;;;15.15;100.00;93646.97;5091606;28;20055;-60
2023/07/15 04:35:50;;;;;;;10.02;7.15;;;;;;;15.02;100.00;93643.50;5092651;28;20036;-60
2023/07/15 04:38:18;;;;;;;9.93;7.30;;;;;;;15.07;100.00;93642.16;5101432;28;20039;-62
2023/07/15 04:40:45;;;;;;;11.40;7.23;;;;;;;14.84;100.00;93640.63;5110128;28;20042;-61
2023/07/15 04:43:11;;;;;;;10.27;7.35;;;;;;;14.95;100.00;93643.75;5109485;28;20319;-60
2023/07/15 04:45:38;;;;;;;9.38;7.55;;;;;;;14.89;100.00;93642.81;5091950;28;20453;-61
2023/07/15 04:48:05;;;;;;;11.88;7.57;;;;;;;14.77;100.00;93650.72;5092514;28;20040;-60
2023/07/15 04:50:32;;;;;;;11.82;7.70;;;;;;;14.61;100.00;93653.66;5091736;28;20043;-60
2023/07/15 04:52:59;;;;;;;10.33;7.80;;;;;;;14.75;100.00;93649.63;5109039;28;20044;-62
2023/07/15 04:55:26;;;;;;;9.82;7.40;;;;;;;14.96;100.00;93648.84;5104873;28;20040;-61
2023/07/15 04:57:53;;;;;;;9.75;7.63;;;;;;;15.12;100.00;93649.88;5094496;28;20500;-61
2023/07/15 05:00:20;;;;;;;10.73;7.82;;;;;;;15.10;100.00;93649.56;5101792;28;20051;-62
2023/07/15 05:02:49;;;;;;;10.13;7.90;;;;;;;15.02;100.00;93649.03;5109431;28;20039;-60
2023/07/15 05:05:16;;;;;;;9.63;7.53;;;;;;;15.00;100.00;93643.19;5108852;28;20821;-60
2023/07/15 05:07:43;;;;;;;11.18;7.80;;;;;;;14.91;100.00;93641.16;5109192;28;20415;-60
2023/07/15 05:10:24;;;;;;;11.13;7.97;;;;;;;15.14;100.00;93641.91;5108545;28;22459;-60
2023/07/15 05:12:51;;;;;;;11.63;8.30;;;;;;;15.41;100.00;93641.25;5095564;28;20050;-60
2023/07/15 05:15:17;;;;;;;9.40;7.70;;;;;;;15.70;100.00;93648.47;5091144;28;20036;-60
2023/07/15 05:17:44;;;;;;;13.80;7.13;;;;;;;15.89;100.00;93647.31;5108698;28;20039;-63
2023/07/15 05:20:14;;;;;;;11.55;7.55;;;;;;;16.02;100.00;93650.00;5087749;28;20393;-62
2023/07/15 05:22:41;;;;;;;12.68;8.23;;;;;;;15.91;100.00;93644.88;5077311;28;20568;-61
2023/07/15 05:25:09;;;;;;;10.00;8.20;;;;;;;15.99;100.00;93642.59;5087993;28;20048;-62
2023/07/15 05:27:40;;;;;;;11.88;8.23;;;;;;;16.15;100.00;93634.00;5088931;28;20070;-60
2023/07/15 05:30:10;;;;;;;12.03;7.60;;;;;;;16.56;100.00;93628.38;5087695;28;20040;-60
2023/07/15 05:32:38;;;;;;;12.02;7.70;;;;;;;17.44;100.00;93624.09;5088873;28;20054;-60
2023/07/15 05:35:05;;;;;;;10.25;7.93;;;;;;;20.44;100.00;93606.19;5088318;28;20050;-61
2023/07/15 05:37:32;;;;;;;10.57;7.30;;;;;;;23.70;100.00;93596.44;5088495;28;20048;-62
2023/07/15 05:39:59;;;;;;;9.75;7.20;;;;;;;24.84;89.20;93597.75;5084130;28;20399;-59
2023/07/15 05:42:28;;;;;;;7.93;6.33;;;;;;;23.59;93.72;93601.28;5097451;28;20066;-59
2023/07/15 05:44:55;;;;;;;10.40;7.43;;;;;;;23.45;98.98;93595.41;5094994;28;20413;-59
2023/07/15 05:47:22;;;;;;;9.88;6.80;;;;;;;23.36;96.45;93600.47;5081489;28;20059;-59
2023/07/15 05:49:48;;;;;;;8.70;7.07;;;;;;;22.40;100.00;93600.16;5073450;28;20480;-60
2023/07/15 05:52:15;;;;;;;11.57;7.20;;;;;;;23.15;98.81;93597.16;5087915;28;20430;-59
2023/07/15 05:54:41;;;;;;;8.47;7.33;;;;;;;24.79;86.68;93597.78;5071027;28;20075;-59
2023/07/15 05:57:08;;;;;;;8.65;6.70;;;;;;;26.13;79.55;93586.97;5078261;28;20060;-60
2023/07/15 05:59:35;;;;;;;8.25;6.10;;;;;;;27.59;71.58;93583.69;5086626;28;20036;-60
2023/07/15 06:02:02;;;;;;;7.75;6.00;;;;;;;29.16;66.54;93574.47;5078142;28;20048;-59
2023/07/15 06:04:28;;;;;;;7.65;6.07;;;;;;;30.43;56.87;93581.78;5074602;28;20050;-60
2023/07/15 06:06:55;;;;;;;8.57;5.93;;;;;;;31.05;52.80;93580.09;5087309;28;20434;-60
2023/07/15 06:09:22;;;;;;;7.07;5.78;;;;;;;32.41;49.05;93570.22;5085663;28;20049;-60
2023/07/15 06:11:48;;;;;;;7.25;5.63;;;;;;;29.95;53.88;93580.41;5077380;28;20045;-62
2023/07/15 06:14:15;;;;;;;6.43;5.60;;;;;;;28.91;61.19;93576.00;5098902;28;21545;-61
2023/07/15 06:16:42;;;;;;;10.55;5.78;;;;;;;29.31;62.02;93581.63;5108261;28;20046;-60
2023/07/15 06:19:09;;;;;;;7.60;5.70;;;;;;;31.41;54.78;93570.00;5107450;28;20387;-60
2023/07/15 06:21:36;;;;;;;6.90;5.75;;;;;;;32.16;51.05;93567.19;5108255;28;20038;-61
2023/07/15 06:24:03;;;;;;;7.75;6.22;;;;;;;33.85;45.54;93560.28;5107436;28;20088;-60
2023/07/15 06:26:30;;;;;;;7.18;5.50;;;;;;;34.28;43.19;93564.75;5096196;28;20069;-59
2023/07/15 06:28:57;;;;;;;8.02;5.10;;;;;;;33.70;44.83;93556.22;5081594;28;20044;-62
2023/07/15 06:31:24;;;;;;;7.63;5.30;;;;;;;33.68;44.18;93558.88;5107143;28;20032;-60
2023/07/15 06:33:51;;;;;;;7.47;5.22;;;;;;;33.41;44.29;93556.53;5099945;28;20040;-60
2023/07/15 06:36:19;;;;;;;5.93;4.75;;;;;;;33.41;45.73;93565.06;5091325;28;20044;-60
2023/07/15 06:38:46;;;;;;;5.68;4.70;;;;;;;35.32;41.95;93561.28;5107405;28;20065;-61
2023/07/15 06:41:13;;;;;;;8.25;4.82;;;;;;;33.75;44.10;93555.25;5111486;28;20434;-60
2023/07/15 06:43:40;;;;;;;7.80;5.10;;;;;;;33.57;44.79;93550.78;5112160;28;20051;-61
2023/07/15 06:46:07;;;;;;;6.88;4.95;;;;;;;33.63;45.04;93549.25;5111118;28;20099;-61
2023/07/15 06:48:34;;;;;;;7.07;4.93;;;;;;;34.94;43.25;93551.06;5112052;28;20031;-60
2023/07/15 06:51:01;;;;;;;7.15;4.90;;;;;;;36.23;40.05;93548.47;5111171;28;20044;-60
2023/07/15 06:53:27;;;;;;;8.93;4.68;;;;;;;37.01;38.70;93548.66;5093410;28;20036;-61
2023/07/15 06:55:54;;;;;;;6.13;4.40;;;;;;;37.01;38.29;93540.84;5092254;28;20040;-61
2023/07/15 06:58:40;;;;;;;5.05;4.00;;;;;;;36.76;36.01;93538.25;5091650;28;20044;-61
2023/07/15 07:01:10;;;;;;;5.55;3.60;;;;;;;36.05;34.96;93537.09;5090319;28;20044;-61
2023/07/15 07:03:38;;;;;;;4.88;3.88;;;;;;;36.63;34.21;93533.72;5099285;28;20043;-60
2023/07/15 07:06:05;;;;;;;4.88;3.50;;;;;;;36.90;32.61;93532.84;5095483;28;20056;-64
2023/07/15 07:08:32;;;;;;;5.43;3.50;;;;;;;37.16;32.75;93540.53;5091070;28;20441;-60
2023/07/15 07:10:58;;;;;;;4.72;3.47;;;;;;;37.48;32.80;93540.69;5072452;28;20047;-60
2023/07/15 07:13:25;;;;;;;5.20;3.70;;;;;;;37.65;32.33;93552.00;5090638;28;20460;-60
2023/07/15 07:15:56;;;;;;;5.35;3.63;;;;;;;37.95;31.04;93552.66;5090592;28;20050;-61
2023/07/15 07:18:23;;;;;;;5.22;3.55;;;;;;;38.68;29.85;93553.47;5090874;28;20040;-62
2023/07/15 07:20:58;;;;;;;5.00;3.67;;;;;;;38.53;29.93;93552.47;5097702;28;20039;-60
2023/07/15 07:23:25;;;;;;;4.63;3.60;;;;;;;38.10;29.17;93565.91;5093058;28;20452;-61
2023/07/15 07:25:53;;;;;;;5.30;3.50;;;;;;;37.23;31.32;93555.31;5092268;28;20388;-62
2023/07/15 07:28:36;;;;;;;4.65;3.50;;;;;;;39.02;28.98;93557.94;5092429;28;20092;-60
2023/07/15 07:31:03;;;;;;;5.40;3.70;;;;;;;38.76;29.68;93559.75;5081911;28;20124;-60
2023/07/15 07:33:30;;;;;;;5.17;3.70;;;;;;;38.66;29.16;93556.19;5104581;28;20496;-61
2023/07/15 07:35:57;;;;;;;4.95;3.70;;;;;;;38.73;29.65;93558.09;5075621;28;20059;-61
2023/07/15 07:38:23;;;;;;;5.10;3.50;;;;;;;38.39;28.17;93550.72;5095790;28;20143;-62
2023/07/15 07:40:51;;;;;;;6.70;3.80;;;;;;;37.43;28.43;93548.22;5089179;28;20048;-60
2023/07/15 07:43:18;;;;;;;4.78;3.30;;;;;;;37.34;29.95;93543.25;5090373;28;20547;-60
2023/07/15 07:45:45;;;;;;;4.67;3.63;;;;;;;38.12;29.41;93546.75;5090610;28;20102;-60
2023/07/15 07:48:11;;;;;;;7.35;3.60;;;;;;;38.04;28.94;93554.00;5078388;28;20044;-63
2023/07/15 07:50:38;;;;;;;4.80;3.55;;;;;;;37.78;28.88;93551.50;5105391;28;20034;-61
2023/07/15 07:53:05;;;;;;;5.45;3.45;;;;;;;38.41;27.04;93540.13;5102101;28;20048;-60
2023/07/15 07:55:31;;;;;;;5.95;3.58;;;;;;;38.55;27.32;93537.53;5090606;28;20046;-60
2023/07/15 07:57:58;;;;;;;5.87;3.37;;;;;;;37.46;28.76;93537.69;5104470;28;20043;-61
2023/07/15 08:00:25;;;;;;;5.07;3.40;;;;;;;38.48;26.98;93539.19;5092596;28;20031;-61
2023/07/15 08:02:52;;;;;;;3.78;3.17;;;;;;;35.59;29.63;93544.19;5110655;28;20403;-61
2023/07/15 08:05:19;;;;;;;4.57;3.03;;;;;;;38.23;26.90;93528.16;5111019;28;20039;-61
2023/07/15 08:07:45;;;;;;;6.93;3.13;;;;;;;38.45;26.90;93525.31;5103259;28;20043;-60
2023/07/15 08:10:12;;;;;;;4.50;3.40;;;;;;;38.58;26.05;93532.66;5089988;28;20043;-60
2023/07/15 08:12:39;;;;;;;4.13;3.10;;;;;;;37.33;28.04;93519.63;5075911;28;20044;-60
2023/07/15 08:15:06;;;;;;;3.75;3.00;;;;;;;38.31;27.04;93517.25;5080295;28;20048;-61
2023/07/15 08:17:35;;;;;;;4.13;3.03;;;;;;;38.28;26.75;93509.88;5096733;28;20040;-62
2023/07/15 08:20:03;;;;;;;4.60;3.00;;;;;;;39.00;25.79;93511.13;5109972;28;20112;-60
2023/07/15 08:22:30;;;;;;;4.20;3.47;;;;;;;38.86;26.47;93517.41;5092539;28;20035;-60
2023/07/15 08:24:57;;;;;;;6.47;3.35;;;;;;;36.53;29.25;93518.63;5090943;28;20419;-61
2023/07/15 08:27:24;;;;;;;6.15;3.67;;;;;;;36.75;29.96;93519.59;5090043;28;20040;-61
2023/07/15 08:29:51;;;;;;;4.60;3.70;;;;;;;35.46;31.16;93521.75;5089583;28;20044;-61
2023/07/15 08:32:17;;;;;;;4.60;3.70;;;;;;;37.15;28.66;93519.03;5110956;27;20070;-61
2023/07/15 08:35:01;;;;;;;6.07;3.70;;;;;;;37.34;27.92;93512.53;5110419;28;20080;-61
2023/07/15 08:37:28;;;;;;;4.70;3.40;;;;;;;38.58;27.13;93512.59;5079115;28;20036;-61
2023/07/15 08:39:55;;;;;;;4.20;3.28;;;;;;;39.97;25.41;93516.00;5089870;28;20040;-60
2023/07/15 08:42:23;;;;;;;5.03;3.20;;;;;;;37.14;28.31;93511.03;5110048;28;20058;-60
2023/07/15 08:44:51;;;;;;;5.82;2.90;;;;;;;36.78;29.21;93513.44;5109682;28;20108;-61
2023/07/15 08:47:20;;;;;;;4.43;3.00;;;;;;;38.24;26.70;93506.00;5110208;28;20047;-61
2023/07/15 08:49:48;;;;;;;4.60;2.83;;;;;;;36.09;27.98;93514.56;5110116;28;20040;-61
2023/07/15 08:52:20;;;;;;;4.45;3.00;;;;;;;37.70;26.59;93516.56;5086985;28;20357;-60
2023/07/15 08:54:48;;;;;;;4.57;3.10;;;;;;;38.43;25.47;93519.44;5086531;28;20050;-60
2023/07/15 08:57:19;;;;;;;4.60;2.80;;;;;;;39.21;23.77;93519.72;5079479;28;20044;-60
2023/07/15 08:59:54;;;;;;;4.83;2.83;;;;;;;38.05;25.79;93512.50;5106097;28;20031;-61
2023/07/15 09:02:24;;;;;;;5.10;2.85;;;;;;;37.05;26.21;93515.41;5109057;28;20338;-60
2023/07/15 09:04:51;;;;;;;4.50;3.00;;;;;;;37.25;26.38;93503.94;5109270;28;20040;-61
2023/07/15 09:07:27;;;;;;;5.20;2.75;;;;;;;35.93;27.94;93505.47;5109713;28;20548;-60
2023/07/15 09:09:54;;;;;;;3.80;2.90;;;;;;;35.78;28.79;93508.59;5099816;28;20482;-60
2023/07/15 09:12:26;;;;;;;3.50;2.90;;;;;;;37.11;26.09;93512.22;5093461;28;20031;-62
2023/07/15 09:14:54;;;;;;;4.22;2.90;;;;;;;35.20;28.89;93517.53;5091258;28;20043;-60
2023/07/15 09:17:21;;;;;;;5.00;3.03;;;;;;;35.64;27.88;93501.69;5109522;28;20044;-60
2023/07/15 09:19:48;;;;;;;6.05;3.10;;;;;;;35.12;29.39;93511.13;5109464;28;20089;-60
2023/07/15 09:22:18;;;;;;;4.30;2.88;;;;;;;34.52;28.15;93506.22;5108500;28;20886;-61
2023/07/15 09:24:45;;;;;;;4.03;2.80;;;;;;;35.15;28.46;93507.09;5109261;28;20048;-60
2023/07/15 09:27:12;;;;;;;4.55;3.10;;;;;;;33.43;31.03;93496.97;5108960;28;20183;-62
2023/07/15 09:29:38;;;;;;;3.97;3.00;;;;;;;33.82;30.06;93499.59;5109401;28;20373;-60
2023/07/15 09:32:07;;;;;;;4.82;3.00;;;;;;;34.87;29.34;93499.81;5106355;28;20467;-60
2023/07/15 09:34:40;;;;;;;4.68;3.00;;;;;;;33.95;29.53;93495.72;5103552;28;20043;-62
2023/07/15 09:37:07;;;;;;;4.47;3.10;;;;;;;34.34;29.52;93499.75;5108221;28;20399;-60
2023/07/15 09:39:34;;;;;;;4.28;2.95;;;;;;;35.88;27.71;93506.53;5108788;28;20039;-61
2023/07/15 09:42:04;;;;;;;4.78;2.90;;;;;;;36.79;26.48;93485.59;5108482;28;20060;-63
2023/07/15 09:44:36;;;;;;;4.72;3.00;;;;;;;36.42;25.86;93491.34;5109220;28;20040;-61
2023/07/15 09:47:04;;;;;;;4.28;2.95;;;;;;;35.10;28.16;93502.41;5108749;28;20051;-60
2023/07/15 09:49:31;;;;;;;4.20;3.17;;;;;;;35.90;27.69;93494.47;5109270;28;20032;-61
2023/07/15 09:51:59;;;;;;;4.18;2.80;;;;;;;34.01;29.24;93499.09;5090220;28;20047;-61
2023/07/15 09:54:26;;;;;;;4.85;3.25;;;;;;;33.39;29.72;93490.19;5109076;28;20133;-60
2023/07/15 09:56:58;;;;;;;5.70;3.50;;;;;;;34.22;29.06;93496.63;5108359;28;20052;-62
2023/07/15 09:59:28;;;;;;;6.05;3.08;;;;;;;34.68;27.51;93500.41;5108950;28;20040;-60
2023/07/15 10:02:18;;;;;;;4.20;3.00;;;;;;;35.07;26.61;93495.03;5108256;28;20035;-60
2023/07/15 10:04:46;;;;;;;3.53;2.70;;;;;;;35.77;26.94;93489.94;5090799;28;20488;-61
2023/07/15 10:07:14;;;;;;;4.43;3.15;;;;;;;36.25;24.91;93492.25;5087234;28;20044;-63
2023/07/15 10:09:41;;;;;;;5.15;3.00;;;;;;;36.08;26.90;93498.78;5092582;28;20047;-61
2023/07/15 10:12:08;;;;;;;3.63;2.88;;;;;;;36.61;26.53;93493.50;5097585;28;20052;-62
2023/07/15 10:14:37;;;;;;;3.60;2.90;;;;;;;36.64;24.29;93488.72;5088518;28;20070;-60
2023/07/15 10:17:11;;;;;;;4.35;3.40;;;;;;;38.26;23.21;93483.19;5085854;28;20044;-60
2023/07/15 10:19:44;;;;;;;4.43;2.83;;;;;;;40.20;21.56;93480.00;5101598;28;20104;-60
2023/07/15 10:22:12;;;;;;;3.80;2.90;;;;;;;39.64;22.12;93493.03;5088678;28;20184;-61
2023/07/15 10:24:43;;;;;;;3.40;2.35;;;;;;;38.70;21.74;93490.50;5087030;28;20052;-59
2023/07/15 10:27:11;;;;;;;3.37;2.77;;;;;;;38.46;22.18;93489.56;5087868;28;20044;-61
2023/07/15 10:29:39;;;;;;;3.83;2.70;;;;;;;38.27;22.43;93478.97;5108105;28;20444;-61
2023/07/15 10:32:07;;;;;;;3.70;3.10;;;;;;;36.97;25.17;93486.19;5071994;28;20389;-61
2023/07/15 10:34:35;;;;;;;3.40;2.58;;;;;;;36.86;23.73;93487.53;5093599;28;20101;-61
2023/07/15 10:37:07;;;;;;;3.65;2.60;;;;;;;36.44;24.04;93476.47;5107329;28;20047;-61
2023/07/15 10:39:34;;;;;;;3.83;2.67;;;;;;;36.09;24.22;93488.09;5107226;28;20048;-61
2023/07/15 10:42:12;;;;;;;4.15;2.50;;;;;;;35.56;25.24;93481.84;5106846;28;20058;-60
2023/07/15 10:44:40;;;;;;;3.38;2.30;;;;;;;35.15;24.22;93475.72;5101034;28;20036;-61
2023/07/15 10:47:08;;;;;;;5.38;2.67;;;;;;;34.70;25.60;93472.09;5087152;28;20048;-60
2023/07/15 10:49:35;;;;;;;4.55;2.50;;;;;;;35.40;24.83;93464.94;5102153;28;20044;-60
2023/07/15 10:52:04;;;;;;;3.63;2.30;;;;;;;35.85;24.27;93464.88;5107506;28;20051;-61
2023/07/15 10:54:34;;;;;;;3.67;2.70;;;;;;;36.45;23.77;93460.84;5107444;28;20066;-62
2023/07/15 10:57:09;;;;;;;5.75;2.95;;;;;;;36.56;24.47;93452.44;5088976;28;20050;-63
2023/07/15 10:59:38;;;;;;;4.60;2.85;;;;;;;35.15;25.82;93450.03;5107728;28;20035;-59
2023/07/15 11:02:05;;;;;;;4.57;2.80;;;;;;;33.29;28.09;93453.06;5089408;28;20044;-60
2023/07/15 11:04:34;;;;;;;3.60;2.53;;;;;;;33.59;27.34;93446.41;5089185;28;20047;-59
2023/07/15 11:07:03;;;;;;;4.13;2.65;;;;;;;32.55;26.64;93440.88;5107243;28;20059;-59
2023/07/15 11:09:30;;;;;;;3.53;2.60;;;;;;;33.01;28.09;93445.63;5107451;28;20036;-59
2023/07/15 11:11:57;;;;;;;5.15;2.70;;;;;;;33.16;27.74;93439.88;5088520;28;20162;-60
2023/07/15 11:14:25;;;;;;;4.10;2.60;;;;;;;32.74;28.46;93436.81;5102894;28;20052;-60
2023/07/15 11:16:57;;;;;;;3.77;2.80;;;;;;;32.72;29.34;93439.47;5088685;28;20040;-60
2023/07/15 11:19:27;;;;;;;4.53;2.35;;;;;;;32.47;26.64;93437.28;5090513;28;20044;-60
2023/07/15 11:21:59;;;;;;;5.18;2.80;;;;;;;31.83;28.82;93440.03;5097279;28;20041;-60
2023/07/15 11:24:30;;;;;;;5.05;3.00;;;;;;;32.04;29.11;93431.31;5110805;28;20051;-60
2023/07/15 11:27:00;;;;;;;5.53;2.80;;;;;;;32.51;28.91;93431.97;5092845;28;20053;-59
2023/07/15 11:29:28;;;;;;;4.83;3.10;;;;;;;32.83;27.86;93413.50;5110980;28;20044;-59
2023/07/15 11:31:56;;;;;;;3.97;2.70;;;;;;;33.03;26.83;93412.44;5078301;28;20480;-59